Snow/Ice From: 24-10-2018 05:00 Until: 09:00 warning for: Snow/Ice Level: Yellow info button
suomi:
Liikennesää: Ajokeli muuttuu huonoksi aamulla tienpintojen jäätymisen vuoksi.

svenska:
Trafikvädret: Väglaget blir dåligt på morgonen p.g.a. tillfrysning av vägytor.

english:
Traffic weather warning: Bad road conditions are expected in the morning because of ice-covered roads. 


Thunder radar more information blitzortung!


Löydät sääaseman tiedot myös:

European Weather Network

Finland Weather Exchange

Weather Underground

AWEKAS



Weather Underground säähistoriasivu

Päivittäin yhteenveto Huhtikuu 19, 2017 Yksiköt:  Englantilaiset    Metriset   Molemmat
« Edellinen Päivä
Seuraava Päivä »
Päivittäin Viikoittain Kuukausittain Vuosittain Mukautettu
  Korkea: Matala: Keskiarvo:
Lämpötila: TemperatureF °F 19.8 °F 31.7 °F
Kastepiste: DewpointF °F 17.2 °F 21.2 °F
Kosteus: Humidity % 40 % 66 %
Tuulen nopeus: WindSpeedMPH mph 0.0 mph 1.6 mph
Tuulenpuuska: WindSpeedGustMPH mph - -
Tuuli:- - SSW
Ilmanpaine: PressureIn in 30.32 in -
Sade: 0.00 in    
Historical Graphs
 
 
Taulukkotiedot Huhtikuu 19, 2017
Aika Lämpötila Kastepiste Ilmanpaine Tuuli Tuulen nopeus Tuulenpuuska Kosteus Sademäärä (tunneittain)
TemperatureF °F DewpointF °F PressureIn in Calm     Humidity % HourlyPrecipIn in
00:00 25.9 °F 19.8 °F 30.42 in Calm     77 % 0.00 in
00:15 25.5 °F 19.9 °F 30.42 in Calm     79 % 0.00 in
00:30 25.2 °F 19.8 °F 30.42 in Calm     80 % 0.00 in
00:45 24.4 °F 19.6 °F 30.43 in Calm   2.0 mph 81 % 0.00 in
01:00 24.3 °F 19.2 °F 30.43 in Calm     81 % 0.00 in
01:15 24.3 °F 18.7 °F 30.43 in Calm     79 % 0.00 in
01:30 24.1 °F 18.7 °F 30.43 in Calm     80 % 0.00 in
01:45 23.7 °F 18.1 °F 30.43 in Calm     79 % 0.00 in
02:00 23.4 °F 18.5 °F 30.44 in Calm     81 % 0.00 in
02:15 23.0 °F 18.7 °F 30.44 in Calm     83 % 0.00 in
02:30 22.5 °F 18.3 °F 30.44 in Calm     84 % 0.00 in
02:45 22.1 °F 18.3 °F 30.44 in Calm     85 % 0.00 in
03:00 21.7 °F 18.1 °F 30.44 in Calm     86 % 0.00 in
03:15 21.4 °F 17.8 °F 30.44 in Calm     86 % 0.00 in
03:30 21.2 °F 18.0 °F 30.44 in Calm     87 % 0.00 in
03:45 21.2 °F 18.0 °F 30.44 in Calm     87 % 0.00 in
04:00 21.0 °F 18.0 °F 30.44 in Calm     88 % 0.00 in
04:15 20.8 °F 18.0 °F 30.44 in Calm     88 % 0.00 in
04:30 20.7 °F 17.6 °F 30.44 in Calm     88 % 0.00 in
04:45 20.5 °F 17.6 °F 30.44 in Calm     89 % 0.00 in
05:00 20.1 °F 17.4 °F 30.44 in Calm     89 % 0.00 in
05:15 19.9 °F 17.2 °F 30.44 in Calm     89 % 0.00 in
05:30 19.9 °F 17.2 °F 30.44 in Calm     89 % 0.00 in
05:45 19.8 °F 17.4 °F 30.44 in Calm     90 % 0.00 in
06:00 19.9 °F 17.8 °F 30.44 in Calm     91 % 0.00 in
06:15 20.1 °F 17.8 °F 30.43 in Calm     90 % 0.00 in
06:30 20.1 °F 17.6 °F 30.44 in Calm     90 % 0.00 in
06:45 19.9 °F 17.4 °F 30.44 in Calm     90 % 0.00 in
07:00 20.1 °F 18.0 °F 30.44 in Calm     91 % 0.00 in
07:15 20.7 °F 18.7 °F 30.44 in Calm     92 % 0.00 in
07:30 21.7 °F 19.6 °F 30.44 in Calm   1.0 mph 91 % 0.00 in
07:45 23.4 °F 20.5 °F 30.44 in Calm   3.0 mph 89 % 0.00 in
08:00 24.8 °F 21.6 °F 30.44 in Calm   2.0 mph 87 % 0.00 in
08:15 26.4 °F 22.5 °F 30.44 in SW 1.0 mph 5.0 mph 85 % 0.00 in
08:30 27.7 °F 23.0 °F 30.44 in SSW 1.0 mph 4.0 mph 82 % 0.00 in
08:45 28.4 °F 23.5 °F 30.44 in Calm   3.0 mph 82 % 0.00 in
09:00 29.7 °F 24.6 °F 30.44 in SSW 1.0 mph 3.0 mph 81 % 0.00 in
09:15 30.7 °F 25.0 °F 30.44 in SSW 3.0 mph 8.0 mph 79 % 0.00 in
09:30 31.6 °F 25.7 °F 30.44 in SSW 3.0 mph 8.0 mph 78 % 0.00 in
09:45 32.7 °F 26.1 °F 30.44 in SSW 3.0 mph 7.0 mph 76 % 0.00 in
10:00 33.4 °F 26.1 °F 30.44 in South 3.0 mph 7.0 mph 74 % 0.00 in
10:15 34.2 °F 26.4 °F 30.44 in SSW 2.0 mph 8.0 mph 73 % 0.00 in
10:30 35.1 °F 25.9 °F 30.44 in SSW 3.0 mph 8.0 mph 69 % 0.00 in
10:45 35.8 °F 23.0 °F 30.44 in SSW 4.0 mph 8.0 mph 60 % 0.00 in
11:00 36.1 °F 24.3 °F 30.44 in SSW 4.0 mph 7.0 mph 62 % 0.00 in
11:15 36.9 °F 23.0 °F 30.44 in SSW 3.0 mph 8.0 mph 57 % 0.00 in
11:30 37.6 °F 22.8 °F 30.43 in SSW 4.0 mph 11.0 mph 55 % 0.00 in
11:45 38.3 °F 23.5 °F 30.43 in WSW 4.0 mph 11.0 mph 55 % 0.00 in
12:00 38.8 °F 22.6 °F 30.43 in SW 4.0 mph 11.0 mph 52 % 0.00 in
12:15 39.4 °F 23.7 °F 30.43 in SSW 3.0 mph 8.0 mph 53 % 0.00 in
12:30 39.6 °F 23.4 °F 30.43 in SSW 3.0 mph 8.0 mph 52 % 0.00 in
12:45 39.9 °F 23.7 °F 30.42 in SW 4.0 mph 10.0 mph 52 % 0.00 in
13:00 40.8 °F 24.6 °F 30.42 in SW 3.0 mph 9.0 mph 52 % 0.00 in
13:15 41.5 °F 24.3 °F 30.42 in WSW 3.0 mph 9.0 mph 50 % 0.00 in
13:30 41.7 °F 24.1 °F 30.42 in SW 4.0 mph 8.0 mph 49 % 0.00 in
13:45 41.5 °F 23.9 °F 30.42 in SSW 5.0 mph 10.0 mph 49 % 0.00 in
14:00 42.1 °F 23.2 °F 30.41 in SSW 4.0 mph 11.0 mph 47 % 0.00 in
14:15 42.4 °F 23.0 °F 30.41 in SSW 4.0 mph 9.0 mph 46 % 0.00 in
14:30 42.4 °F 23.0 °F 30.41 in SSW 3.0 mph 9.0 mph 46 % 0.00 in
14:45 42.6 °F 22.3 °F 30.41 in South 4.0 mph 12.0 mph 44 % 0.00 in
15:00 42.6 °F 23.4 °F 30.40 in SW 4.0 mph 7.0 mph 46 % 0.00 in
15:15 43.9 °F 21.7 °F 30.40 in SW 3.0 mph 7.0 mph 41 % 0.00 in
15:30 43.2 °F 20.5 °F 30.40 in SW 3.0 mph 8.0 mph 40 % 0.00 in
15:45 43.0 °F 20.3 °F 30.40 in SW 3.0 mph 9.0 mph 40 % 0.00 in
16:00 42.8 °F 21.2 °F 30.40 in SSW 3.0 mph 9.0 mph 42 % 0.00 in
16:15 42.6 °F 23.2 °F 30.40 in West 3.0 mph 9.0 mph 46 % 0.00 in
16:30 42.4 °F 21.6 °F 30.39 in SSW 4.0 mph 10.0 mph 43 % 0.00 in
16:45 42.1 °F 21.0 °F 30.39 in SW 3.0 mph 12.0 mph 43 % 0.00 in
17:00 42.1 °F 22.1 °F 30.39 in SW 4.0 mph 8.0 mph 45 % 0.00 in
17:15 41.9 °F 22.1 °F 30.38 in SSW 4.0 mph 9.0 mph 45 % 0.00 in
17:30 41.9 °F 23.2 °F 30.38 in West 3.0 mph 8.0 mph 47 % 0.00 in
17:45 41.7 °F 24.1 °F 30.38 in SSW 3.0 mph 11.0 mph 49 % 0.00 in
18:00 41.4 °F 23.5 °F 30.38 in SW 3.0 mph 11.0 mph 49 % 0.00 in
18:15 40.6 °F 23.9 °F 30.38 in SSW 3.0 mph 11.0 mph 51 % 0.00 in
18:30 40.3 °F 24.4 °F 30.38 in SW 3.0 mph 7.0 mph 53 % 0.00 in
18:45 39.4 °F 22.8 °F 30.37 in SW 4.0 mph 13.0 mph 51 % 0.00 in
19:00 38.8 °F 22.8 °F 30.37 in SSW 3.0 mph 7.0 mph 52 % 0.00 in
19:15 38.3 °F 22.3 °F 30.37 in SSW 3.0 mph 7.0 mph 52 % 0.00 in
19:30 38.1 °F 22.5 °F 30.36 in SSW 2.0 mph 8.0 mph 53 % 0.00 in
19:45 37.8 °F 22.1 °F 30.36 in SSW 2.0 mph 6.0 mph 53 % 0.00 in
20:00 37.0 °F 22.5 °F 30.36 in SSW 1.0 mph 6.0 mph 55 % 0.00 in
20:15 36.9 °F 22.6 °F 30.35 in SW 2.0 mph 7.0 mph 56 % 0.00 in
20:30 36.5 °F 22.6 °F 30.35 in SW 1.0 mph 4.0 mph 57 % 0.00 in
20:45 36.0 °F 22.5 °F 30.35 in Calm     58 % 0.00 in
21:00 35.1 °F 22.5 °F 30.35 in Calm   4.0 mph 60 % 0.00 in
21:15 34.3 °F 22.3 °F 30.34 in SW 1.0 mph 4.0 mph 61 % 0.00 in
21:30 34.0 °F 21.9 °F 30.34 in SW 1.0 mph 4.0 mph 61 % 0.00 in
21:45 33.4 °F 21.4 °F 30.34 in Calm   1.0 mph 61 % 0.00 in
22:00 33.1 °F 21.4 °F 30.34 in SW 2.0 mph 6.0 mph 62 % 0.00 in
22:15 32.5 °F 21.4 °F 30.34 in SSW 1.0 mph 5.0 mph 63 % 0.00 in
22:30 32.0 °F 21.6 °F 30.34 in Calm   2.0 mph 65 % 0.00 in
22:45 31.5 °F 21.4 °F 30.33 in SSW 1.0 mph 4.0 mph 66 % 0.00 in
23:00 31.3 °F 20.8 °F 30.33 in Calm   4.0 mph 65 % 0.00 in
23:15 31.1 °F 20.7 °F 30.33 in Calm   4.0 mph 65 % 0.00 in
23:30 30.9 °F 20.8 °F 30.32 in Calm   3.0 mph 66 % 0.00 in
23:45 30.4 °F 21.0 °F 30.32 in Calm   2.0 mph 68 % 0.00 in
Esan sääasema
Terveisin Weather Underground - 2.75 mb

Alkuperäinen skripti  Jim McMurry - jmcmurry@mwt.net Sovitettu myös templatelle  Wim van der Kuil - Leuven-Template.eu

Laitteet joita käytämme:

Sääasema
Davis VP2

Sääasemaohjelma
Cumulus

Sääaseman tietokone
Asus EeePC

Palveluntarjoaja
Suncomet

Davis VP2

Cumulus

Asus EeePC

Suncomet